Time;durP1;ratioP1;P1;durP2;ratioP2;P2;SDS_P1;SDS_P2;PMS_P1;PMS_P2;Temp;Humidity;BMP_temperature;BMP_pressure;BME280_temperature;BME280_humidity;BME280_pressure;Samples;Min_cycle;Max_cycle;Signal;HPM_P1;HPM_P2
2023/12/09 00:00:50;;;;;;;66.00;24.90;;;;;;;-3.02;94.23;99975.33;217506;1256;139785;-62
2023/12/09 00:06:12;;;;;;;64.50;25.30;;;;;;;-3.04;94.35;99974.40;218621;1258;140435;-64
2023/12/09 00:11:17;;;;;;;69.70;29.10;;;;;;;-3.06;94.30;99978.22;218056;1260;139881;-63
2023/12/09 00:16:22;;;;;;;62.90;27.10;;;;;;;-3.04;94.48;99973.02;218871;1258;140739;-62
2023/12/09 00:21:27;;;;;;;68.00;24.50;;;;;;;-3.01;94.49;99970.52;217551;1260;140149;-64
2023/12/09 00:26:32;;;;;;;55.10;22.30;;;;;;;-3.00;94.34;99964.30;218001;1257;139909;-63
2023/12/09 00:31:36;;;;;;;62.90;26.90;;;;;;;-3.00;94.55;99966.09;218876;1257;141043;-65
2023/12/09 00:36:40;;;;;;;74.10;26.20;;;;;;;-3.01;94.48;99962.52;216875;1260;816073;-66
2023/12/09 00:41:45;;;;;;;57.50;22.70;;;;;;;-3.00;94.54;99959.98;218487;1257;140374;-62
2023/12/09 00:46:50;;;;;;;56.50;26.30;;;;;;;-2.99;94.58;99963.23;217482;1257;139836;-63
2023/12/09 00:51:54;;;;;;;68.20;27.60;;;;;;;-3.01;94.48;99962.89;219249;1257;140416;-63
2023/12/09 00:56:59;;;;;;;64.30;23.10;;;;;;;-3.02;94.59;99963.44;217802;1256;139824;-63
2023/12/09 01:02:03;;;;;;;57.50;24.70;;;;;;;-3.02;94.61;99965.21;219907;1257;140941;-64
2023/12/09 01:07:08;;;;;;;50.00;22.30;;;;;;;-2.99;94.60;99963.34;220197;1257;140392;-64
2023/12/09 01:12:12;;;;;;;58.20;21.70;;;;;;;-2.96;94.48;99959.64;220246;1259;140002;-64
2023/12/09 01:17:16;;;;;;;64.90;25.30;;;;;;;-2.93;94.49;99954.33;220248;1256;140648;-63
2023/12/09 01:22:21;;;;;;;64.10;25.20;;;;;;;-2.92;94.47;99952.09;218658;1256;140131;-64
2023/12/09 01:27:26;;;;;;;54.40;25.10;;;;;;;-2.93;94.33;99947.82;217683;1256;140383;-64
2023/12/09 01:32:30;;;;;;;44.90;20.00;;;;;;;-2.92;94.40;99946.04;218771;1257;139937;-64
2023/12/09 01:37:35;;;;;;;43.30;20.60;;;;;;;-2.93;94.33;99943.10;218290;1256;139889;-64
2023/12/09 01:42:44;;;;;;;47.40;23.00;;;;;;;-2.95;94.21;99928.58;217706;1256;160365;-63
2023/12/09 01:47:48;;;;;;;53.40;22.70;;;;;;;-2.97;94.50;99923.17;218643;1257;140395;-63
2023/12/09 01:52:53;;;;;;;45.80;21.40;;;;;;;-2.98;94.48;99917.72;217851;1257;139999;-64
2023/12/09 01:57:58;;;;;;;53.70;23.70;;;;;;;-3.00;94.47;99911.80;217637;1257;140036;-63
2023/12/09 02:03:02;;;;;;;40.70;19.30;;;;;;;-3.01;94.60;99908.41;217578;1257;140246;-64
2023/12/09 02:08:07;;;;;;;47.60;24.10;;;;;;;-3.03;94.63;99909.00;217520;1260;139854;-67
2023/12/09 02:13:24;;;;;;;40.50;18.70;;;;;;;-3.02;94.80;99912.38;218371;1257;140744;-64
2023/12/09 02:18:30;;;;;;;48.40;21.70;;;;;;;-2.99;94.85;99913.63;218014;1257;140146;-63
2023/12/09 02:23:35;;;;;;;58.70;23.50;;;;;;;-2.96;94.90;99911.95;217596;1257;140162;-63
2023/12/09 02:28:49;;;;;;;56.90;26.50;;;;;;;-2.94;94.94;99911.29;218103;1256;140436;-63
2023/12/09 02:33:56;;;;;;;61.30;25.30;;;;;;;-2.93;94.88;99916.35;218303;1257;139950;-63
2023/12/09 02:39:03;;;;;;;51.80;22.30;;;;;;;-2.94;94.94;99911.05;217447;1260;140275;-64
2023/12/09 02:44:08;;;;;;;57.40;20.30;;;;;;;-2.90;94.99;99909.90;218859;1256;140418;-64
2023/12/09 02:49:11;;;;;;;57.90;23.20;;;;;;;-2.89;95.08;99906.92;218773;1258;139818;-62
2023/12/09 02:54:18;;;;;;;62.30;25.10;;;;;;;-2.85;94.94;99910.27;218016;1256;208923;-61
2023/12/09 02:59:23;;;;;;;63.10;24.00;;;;;;;-2.80;94.97;99906.84;218736;1256;140118;-63
2023/12/09 03:04:28;;;;;;;61.50;25.20;;;;;;;-2.78;94.91;99906.41;220243;1256;141087;-64
2023/12/09 03:09:32;;;;;;;62.90;26.10;;;;;;;-2.74;94.99;99906.59;217928;1257;140553;-64
2023/12/09 03:14:37;;;;;;;44.30;20.20;;;;;;;-2.69;95.05;99907.11;220242;1257;141514;-63
2023/12/09 03:19:42;;;;;;;56.30;25.20;;;;;;;-2.61;94.98;99912.85;219523;1256;141361;-64
2023/12/09 03:24:48;;;;;;;48.90;19.10;;;;;;;-2.56;94.95;99908.67;218705;1256;141831;-64
2023/12/09 03:29:52;;;;;;;58.30;21.30;;;;;;;-2.50;94.89;99908.13;219418;1256;140497;-64
2023/12/09 03:34:57;;;;;;;56.90;23.50;;;;;;;-2.45;94.80;99904.14;218563;1256;140284;-65
2023/12/09 03:40:03;;;;;;;57.50;25.40;;;;;;;-2.42;94.58;99896.32;219415;1256;141168;-64
2023/12/09 03:45:08;;;;;;;50.60;24.00;;;;;;;-2.40;94.71;99890.89;217934;1260;140061;-65
2023/12/09 03:50:12;;;;;;;62.70;23.70;;;;;;;-2.38;94.78;99888.46;217421;1257;142711;-64
2023/12/09 03:55:16;;;;;;;50.50;23.00;;;;;;;-2.34;94.83;99890.01;218537;1256;140021;-65
2023/12/09 04:00:25;;;;;;;51.50;22.40;;;;;;;-2.30;94.88;99890.50;219012;1256;140487;-65
2023/12/09 04:05:30;;;;;;;54.70;21.00;;;;;;;-2.25;94.56;99886.19;218216;1256;139707;-65
2023/12/09 04:10:35;;;;;;;56.20;23.70;;;;;;;-2.23;94.49;99882.55;218298;1257;223134;-66
2023/12/09 04:15:40;;;;;;;59.00;26.10;;;;;;;-2.22;94.55;99879.67;218788;1256;139793;-64
2023/12/09 04:20:44;;;;;;;40.40;20.10;;;;;;;-2.20;94.52;99878.02;218155;1256;139699;-63
2023/12/09 04:25:49;;;;;;;56.30;24.20;;;;;;;-2.18;94.58;99874.92;219337;1256;234317;-62
2023/12/09 04:30:53;;;;;;;43.60;19.30;;;;;;;-2.18;94.37;99873.11;217641;1257;236307;-62
2023/12/09 04:35:58;;;;;;;37.70;18.20;;;;;;;-2.18;94.37;99869.65;218461;1256;140185;-62
2023/12/09 04:41:04;;;;;;;45.50;22.30;;;;;;;-2.17;94.36;99861.42;218759;1256;140360;-61
2023/12/09 04:46:08;;;;;;;55.30;24.10;;;;;;;-2.15;94.38;99860.42;219251;1257;140347;-63
2023/12/09 04:51:12;;;;;;;50.30;21.30;;;;;;;-2.10;94.44;99858.53;217815;1259;141617;-63
2023/12/09 04:56:18;;;;;;;42.20;20.70;;;;;;;-2.06;94.32;99858.83;218547;1259;141593;-63
2023/12/09 05:01:23;;;;;;;50.00;21.80;;;;;;;-2.07;94.24;99852.90;219165;1256;140104;-62
2023/12/09 05:06:28;;;;;;;44.40;19.90;;;;;;;-2.06;94.31;99851.58;220119;1256;141812;-62
2023/12/09 05:11:34;;;;;;;45.90;22.30;;;;;;;-2.02;94.28;99856.64;218327;1256;139807;-63
2023/12/09 05:16:38;;;;;;;47.90;22.30;;;;;;;-2.00;94.21;99854.44;219589;1256;141717;-63
2023/12/09 05:21:42;;;;;;;41.00;19.10;;;;;;;-1.97;94.09;99851.86;220153;1256;141323;-63
2023/12/09 05:26:47;;;;;;;49.00;23.20;;;;;;;-1.93;93.82;99849.98;218206;1259;140202;-62
2023/12/09 05:31:51;;;;;;;56.20;23.00;;;;;;;-1.92;93.96;99856.46;217757;1256;141111;-62
2023/12/09 05:36:59;;;;;;;39.50;18.70;;;;;;;-1.91;94.03;99853.60;218470;1257;141115;-62
2023/12/09 05:42:04;;;;;;;46.90;21.30;;;;;;;-1.90;94.04;99849.30;217969;1256;141364;-62
2023/12/09 05:47:10;;;;;;;50.30;21.20;;;;;;;-1.87;94.11;99852.52;217919;1259;140606;-62
2023/12/09 05:52:15;;;;;;;41.50;19.70;;;;;;;-1.85;94.18;99848.81;218078;1259;139953;-63
2023/12/09 05:57:20;;;;;;;58.50;25.60;;;;;;;-1.82;94.22;99844.11;217457;1257;139930;-63
2023/12/09 06:02:25;;;;;;;47.60;23.70;;;;;;;-1.78;94.39;99845.98;218642;1259;140061;-64
2023/12/09 06:07:30;;;;;;;61.00;25.10;;;;;;;-1.76;94.11;99846.26;218486;1257;140374;-61
2023/12/09 06:12:37;;;;;;;49.10;24.10;;;;;;;-1.75;94.07;99854.85;217791;1257;140349;-61
2023/12/09 06:17:41;;;;;;;42.00;20.70;;;;;;;-1.76;94.14;99853.94;217715;1256;139872;-62
2023/12/09 06:22:46;;;;;;;54.10;25.00;;;;;;;-1.77;94.02;99844.67;218919;1256;139971;-63
2023/12/09 06:27:51;;;;;;;57.20;28.00;;;;;;;-1.75;94.18;99844.10;218221;1257;140326;-63
2023/12/09 06:32:56;;;;;;;66.00;31.40;;;;;;;-1.74;94.08;99845.42;218702;1256;140400;-62
2023/12/09 06:38:01;;;;;;;45.30;21.90;;;;;;;-1.74;94.04;99851.52;218507;1260;140074;-62
2023/12/09 06:43:06;;;;;;;55.20;28.20;;;;;;;-1.77;94.08;99856.80;217875;1256;141963;-62
2023/12/09 06:48:10;;;;;;;39.70;19.70;;;;;;;-1.75;94.13;99857.52;217381;1256;139946;-62
2023/12/09 06:53:14;;;;;;;54.00;28.10;;;;;;;-1.75;94.28;99859.42;219737;1256;139750;-62
2023/12/09 06:58:18;;;;;;;59.70;26.60;;;;;;;-1.71;94.28;99858.70;218539;1256;139801;-65
2023/12/09 07:03:23;;;;;;;55.10;26.00;;;;;;;-1.68;94.18;99857.35;218144;1257;140081;-64
2023/12/09 07:08:27;;;;;;;41.90;19.60;;;;;;;-1.62;94.32;99854.55;220227;1256;140469;-65
2023/12/09 07:13:33;;;;;;;57.30;26.80;;;;;;;-1.58;94.11;99852.40;219310;1256;141340;-62
2023/12/09 07:18:40;;;;;;;51.30;25.20;;;;;;;-1.50;94.21;99853.12;220287;1257;140071;-63
2023/12/09 07:23:45;;;;;;;55.20;20.40;;;;;;;-1.43;94.14;99857.38;219600;1256;140975;-62
2023/12/09 07:28:50;;;;;;;54.60;26.20;;;;;;;-1.39;93.85;99852.83;218950;1256;140612;-64
2023/12/09 07:33:54;;;;;;;54.60;26.50;;;;;;;-1.33;93.90;99855.60;218541;1256;140435;-63
2023/12/09 07:38:59;;;;;;;55.10;25.00;;;;;;;-1.26;94.30;99855.26;218482;1256;140345;-63
2023/12/09 07:44:04;;;;;;;55.50;26.70;;;;;;;-1.21;94.07;99855.52;218419;1259;140458;-64
2023/12/09 07:49:09;;;;;;;60.50;27.10;;;;;;;-1.16;94.09;99855.58;218909;1256;140208;-64
2023/12/09 07:54:14;;;;;;;51.80;24.20;;;;;;;-1.13;94.07;99848.64;218698;1256;140194;-61
2023/12/09 07:59:21;;;;;;;59.60;29.00;;;;;;;-1.08;94.03;99848.40;218300;1259;141408;-63
2023/12/09 08:04:27;;;;;;;40.90;20.20;;;;;;;-1.03;94.17;99853.01;217928;1256;139689;-63
2023/12/09 08:09:32;;;;;;;54.00;29.40;;;;;;;-0.99;94.09;99848.61;217866;1255;140556;-62
2023/12/09 08:14:36;;;;;;;51.20;27.00;;;;;;;-0.94;94.53;99846.83;219505;1257;141034;-62
2023/12/09 08:19:42;;;;;;;53.70;26.50;;;;;;;-0.85;94.44;99841.77;218009;1257;141065;-64
2023/12/09 08:24:47;;;;;;;62.10;31.10;;;;;;;-0.77;94.34;99841.21;217495;1256;140804;-63
2023/12/09 08:29:52;;;;;;;50.10;24.60;;;;;;;-0.70;94.29;99845.36;218968;1256;141364;-63
2023/12/09 08:34:58;;;;;;;63.50;30.60;;;;;;;-0.62;94.25;99844.08;218863;1256;140997;-65
2023/12/09 08:40:13;;;;;;;51.60;29.00;;;;;;;-0.52;94.47;99843.27;218751;1256;140169;-62
2023/12/09 08:45:18;;;;;;;51.20;27.40;;;;;;;-0.41;94.46;99830.06;218133;1259;140547;-64
2023/12/09 08:50:23;;;;;;;53.60;28.00;;;;;;;-0.34;94.05;99820.78;219729;1256;141200;-64
2023/12/09 08:55:29;;;;;;;59.90;29.80;;;;;;;-0.25;93.99;99819.83;220146;1256;139762;-66
2023/12/09 09:00:37;;;;;;;55.10;29.30;;;;;;;-0.20;94.08;99816.69;218909;1256;141814;-67
2023/12/09 09:05:43;;;;;;;45.80;27.00;;;;;;;-0.13;93.85;99809.81;219388;1256;140858;-66
2023/12/09 09:10:52;;;;;;;58.30;31.00;;;;;;;-0.10;93.80;99811.88;218363;1259;141380;-65
2023/12/09 09:15:57;;;;;;;52.20;26.90;;;;;;;-0.06;93.65;99804.18;219796;1256;141574;-66
2023/12/09 09:21:01;;;;;;;58.90;31.80;;;;;;;-0.02;93.93;99801.98;219809;1257;142032;-67
2023/12/09 09:26:06;;;;;;;52.70;26.60;;;;;;;0.04;93.61;99798.48;217977;1257;140233;-64
2023/12/09 09:31:11;;;;;;;56.00;29.10;;;;;;;0.11;93.71;99802.81;218534;1257;140297;-65
2023/12/09 09:36:18;;;;;;;50.80;26.20;;;;;;;0.20;94.12;99793.96;217974;1257;140346;-67
2023/12/09 09:41:28;;;;;;;47.40;24.30;;;;;;;0.29;93.70;99788.45;219818;1255;140497;-63
2023/12/09 09:46:34;;;;;;;55.10;27.60;;;;;;;0.35;93.61;99774.35;218235;1257;139803;-65
2023/12/09 09:51:44;;;;;;;49.40;26.50;;;;;;;0.39;93.58;99772.41;217670;1257;140506;-64
2023/12/09 09:56:50;;;;;;;51.30;25.00;;;;;;;0.47;93.43;99768.69;218160;1259;140180;-63
2023/12/09 10:01:54;;;;;;;51.10;25.80;;;;;;;0.55;93.24;99762.94;219251;1259;140757;-64
2023/12/09 10:07:01;;;;;;;46.00;24.70;;;;;;;0.57;93.45;99762.34;218657;1259;140885;-64
2023/12/09 10:12:07;;;;;;;48.90;26.30;;;;;;;0.65;93.52;99760.80;217867;1257;140031;-64
2023/12/09 10:17:13;;;;;;;45.00;25.10;;;;;;;0.68;93.66;99758.14;218313;1256;139911;-66
2023/12/09 10:22:19;;;;;;;49.80;28.60;;;;;;;0.74;93.56;99759.04;217726;1256;142820;-63
2023/12/09 10:27:25;;;;;;;52.30;29.90;;;;;;;0.78;93.56;99756.83;217701;1256;140864;-64
2023/12/09 10:32:33;;;;;;;48.10;25.60;;;;;;;0.78;93.34;99747.23;219361;1257;140002;-64
2023/12/09 10:37:39;;;;;;;50.60;26.50;;;;;;;0.77;93.10;99742.00;218452;1256;140491;-63
2023/12/09 10:42:43;;;;;;;45.50;24.40;;;;;;;0.80;93.12;99742.95;217747;1257;139950;-65
2023/12/09 10:47:48;;;;;;;40.10;25.20;;;;;;;0.83;93.20;99738.90;218485;1256;139744;-62
2023/12/09 10:52:54;;;;;;;54.80;29.70;;;;;;;0.82;93.05;99731.16;217693;1259;140098;-63
2023/12/09 10:58:00;;;;;;;48.20;26.90;;;;;;;0.84;93.16;99721.52;220342;1256;152834;-64
2023/12/09 11:03:07;;;;;;;50.00;26.10;;;;;;;0.82;92.83;99722.21;220426;1259;140000;-64
2023/12/09 11:08:12;;;;;;;49.40;26.80;;;;;;;0.81;92.45;99720.08;220342;1259;139986;-66
2023/12/09 11:13:19;;;;;;;50.80;28.30;;;;;;;0.86;92.89;99717.05;220342;1257;140578;-66
2023/12/09 11:18:24;;;;;;;51.40;27.60;;;;;;;0.94;92.86;99708.05;218281;1257;141598;-65
2023/12/09 11:23:33;;;;;;;53.20;29.20;;;;;;;0.99;92.56;99701.79;217879;1256;140496;-66
2023/12/09 11:28:39;;;;;;;52.30;27.60;;;;;;;1.02;92.85;99693.05;218447;1259;139865;-65
2023/12/09 11:33:44;;;;;;;50.50;25.90;;;;;;;1.06;92.45;99697.88;218801;1256;140870;-65
2023/12/09 11:38:50;;;;;;;49.70;25.70;;;;;;;1.06;92.59;99694.54;218195;1259;139948;-63
2023/12/09 11:43:57;;;;;;;44.60;23.80;;;;;;;1.00;92.09;99692.57;219163;1257;139705;-64
2023/12/09 11:49:04;;;;;;;59.00;26.40;;;;;;;0.96;92.09;99685.98;217846;1257;139957;-63
2023/12/09 11:54:10;;;;;;;48.10;26.00;;;;;;;1.01;92.71;99679.50;218595;1259;159699;-64
2023/12/09 11:59:16;;;;;;;46.20;24.10;;;;;;;1.01;92.72;99678.55;218158;1259;142000;-63
2023/12/09 12:04:21;;;;;;;48.70;24.30;;;;;;;0.96;92.15;99673.63;217868;1259;140902;-63
2023/12/09 12:09:27;;;;;;;44.00;26.20;;;;;;;0.88;92.16;99669.92;219723;1259;141490;-64
2023/12/09 12:14:33;;;;;;;38.90;21.70;;;;;;;0.92;92.54;99666.51;218715;1259;139824;-64
2023/12/09 12:19:39;;;;;;;43.50;24.50;;;;;;;0.87;92.38;99669.02;218134;1257;139766;-66
2023/12/09 12:24:45;;;;;;;41.80;24.20;;;;;;;0.87;92.51;99664.69;218768;1257;139721;-63
2023/12/09 12:29:50;;;;;;;56.50;26.70;;;;;;;0.84;92.29;99662.18;218541;1259;140467;-63
2023/12/09 12:34:56;;;;;;;47.20;27.80;;;;;;;0.82;92.38;99657.89;217260;1259;903835;-63
2023/12/09 12:40:03;;;;;;;48.30;25.00;;;;;;;0.86;92.70;99658.69;219046;1256;139805;-65
2023/12/09 12:45:22;;;;;;;50.50;24.60;;;;;;;0.88;92.59;99661.56;219187;1256;139774;-63
2023/12/09 12:50:30;;;;;;;47.20;25.00;;;;;;;0.91;92.85;99661.44;218902;1256;140591;-64
2023/12/09 12:55:35;;;;;;;47.70;26.50;;;;;;;0.92;92.78;99653.67;218481;1257;139927;-62
2023/12/09 13:00:39;;;;;;;50.90;23.80;;;;;;;0.91;92.82;99653.50;220523;1257;140127;-63
2023/12/09 13:05:43;;;;;;;43.10;23.40;;;;;;;0.95;93.17;99658.11;219206;1257;222675;-63
2023/12/09 13:10:48;;;;;;;39.90;23.80;;;;;;;0.94;92.42;99645.82;219458;1257;139963;-64
2023/12/09 13:15:53;;;;;;;39.10;22.40;;;;;;;0.92;92.71;99638.84;219713;1256;142157;-65
2023/12/09 13:20:57;;;;;;;42.50;22.70;;;;;;;0.94;92.67;99638.83;219583;1257;140387;-64
2023/12/09 13:26:02;;;;;;;35.10;20.70;;;;;;;0.93;92.80;99634.40;217901;1257;141609;-63
2023/12/09 13:31:09;;;;;;;36.80;24.10;;;;;;;0.94;92.90;99628.59;218234;1257;139621;-64
2023/12/09 13:36:15;;;;;;;60.00;28.40;;;;;;;0.98;92.91;99628.49;219318;1257;139767;-63
2023/12/09 13:41:20;;;;;;;86.10;46.50;;;;;;;1.00;92.78;99622.52;218256;1257;140193;-62
2023/12/09 13:46:24;;;;;;;79.60;51.90;;;;;;;1.04;92.79;99621.80;217897;1257;140866;-63
2023/12/09 13:51:30;;;;;;;42.10;24.20;;;;;;;1.06;92.89;99617.52;218380;1257;140158;-62
2023/12/09 13:56:37;;;;;;;34.70;19.40;;;;;;;1.06;92.80;99616.35;217958;1257;139809;-64
2023/12/09 14:01:44;;;;;;;33.40;21.80;;;;;;;1.01;92.67;99612.14;217941;1257;139916;-63
2023/12/09 14:06:49;;;;;;;40.20;22.20;;;;;;;0.99;92.72;99615.35;218308;1256;141395;-64
2023/12/09 14:11:55;;;;;;;32.70;19.60;;;;;;;0.99;92.66;99614.25;218183;1259;139822;-63
2023/12/09 14:17:00;;;;;;;31.00;16.10;;;;;;;0.93;92.93;99603.38;219460;1256;139985;-64
2023/12/09 14:22:05;;;;;;;31.80;19.00;;;;;;;0.88;92.44;99597.92;218964;1259;140450;-66
2023/12/09 14:27:09;;;;;;;33.70;18.60;;;;;;;0.84;92.84;99593.59;218148;1256;140053;-63
2023/12/09 14:32:14;;;;;;;30.80;18.10;;;;;;;0.86;92.89;99592.20;218352;1257;139855;-63
2023/12/09 14:37:19;;;;;;;33.60;20.20;;;;;;;0.85;93.12;99588.92;217996;1257;139580;-64
2023/12/09 14:42:25;;;;;;;18.20;11.30;;;;;;;0.81;92.92;99585.50;218752;1259;140102;-65
2023/12/09 14:47:31;;;;;;;32.60;20.70;;;;;;;0.76;92.70;99576.23;218903;1259;140325;-63
2023/12/09 14:52:37;;;;;;;33.10;20.60;;;;;;;0.71;92.80;99563.44;220474;1257;139895;-65
2023/12/09 14:57:43;;;;;;;33.10;18.80;;;;;;;0.69;92.82;99559.98;219053;1258;139701;-64
2023/12/09 15:02:49;;;;;;;23.40;15.00;;;;;;;0.67;92.93;99556.38;220163;1257;140414;-66
2023/12/09 15:07:54;;;;;;;30.00;18.60;;;;;;;0.65;92.95;99553.92;219821;1257;140782;-66
2023/12/09 15:13:02;;;;;;;29.30;18.60;;;;;;;0.64;92.93;99544.79;218894;1259;139820;-66
2023/12/09 15:18:08;;;;;;;35.00;18.70;;;;;;;0.62;92.90;99541.60;219019;1259;140070;-65
2023/12/09 15:23:17;;;;;;;30.00;16.60;;;;;;;0.61;92.71;99536.02;218440;1256;140823;-64
2023/12/09 15:28:27;;;;;;;35.60;19.90;;;;;;;0.60;92.84;99523.82;217920;1260;141840;-64
2023/12/09 15:33:32;;;;;;;30.50;18.50;;;;;;;0.54;92.99;99522.20;218743;1259;139559;-64
2023/12/09 15:38:38;;;;;;;29.00;18.20;;;;;;;0.53;93.48;99525.48;217981;1257;139988;-64
2023/12/09 15:43:45;;;;;;;33.20;16.80;;;;;;;0.52;93.15;99519.30;218439;1260;140831;-65
2023/12/09 15:48:52;;;;;;;29.60;18.00;;;;;;;0.53;93.49;99516.23;218358;1260;140518;-64
2023/12/09 15:54:10;;;;;;;30.80;18.20;;;;;;;0.52;93.52;99511.83;218045;1259;140281;-64
2023/12/09 15:59:17;;;;;;;35.80;19.70;;;;;;;0.52;93.22;99501.65;218561;1259;140554;-63
2023/12/09 16:04:27;;;;;;;38.60;19.80;;;;;;;0.50;93.33;99493.48;218084;1258;140370;-63
2023/12/09 16:09:33;;;;;;;33.80;19.30;;;;;;;0.49;93.49;99491.74;218110;1257;140613;-63
2023/12/09 16:14:53;;;;;;;41.20;23.00;;;;;;;0.49;93.46;99497.64;218281;1258;139651;-61
2023/12/09 16:19:59;;;;;;;38.00;21.60;;;;;;;0.47;93.34;99499.46;218389;1260;140760;-63
2023/12/09 16:25:06;;;;;;;34.20;22.00;;;;;;;0.46;93.84;99487.47;217741;1257;140579;-65
2023/12/09 16:30:14;;;;;;;35.30;20.50;;;;;;;0.45;93.55;99480.76;217991;1258;139882;-67
2023/12/09 16:35:20;;;;;;;153.70;59.80;;;;;;;0.48;93.76;99486.09;218352;1257;141196;-67
2023/12/09 16:40:24;;;;;;;129.50;54.00;;;;;;;0.51;93.94;99487.60;217747;1257;139948;-65
2023/12/09 16:45:28;;;;;;;58.60;33.60;;;;;;;0.53;94.38;99487.84;218675;1257;139985;-66
2023/12/09 16:50:33;;;;;;;38.60;24.90;;;;;;;0.57;94.28;99487.30;218661;1260;141450;-63
2023/12/09 16:55:38;;;;;;;44.60;25.10;;;;;;;0.58;93.77;99495.32;219339;1260;143258;-65
2023/12/09 17:00:43;;;;;;;43.80;24.30;;;;;;;0.59;93.99;99493.27;218827;1260;140240;-65
2023/12/09 17:05:47;;;;;;;35.10;21.50;;;;;;;0.62;93.88;99491.69;219884;1256;140280;-67
2023/12/09 17:10:53;;;;;;;39.30;25.90;;;;;;;0.60;93.65;99489.85;219673;1257;140955;-66
2023/12/09 17:15:58;;;;;;;33.30;22.20;;;;;;;0.57;93.53;99487.66;218106;1260;230125;-64
2023/12/09 17:21:03;;;;;;;29.90;19.40;;;;;;;0.55;93.53;99470.00;219705;1256;140701;-65
2023/12/09 17:26:09;;;;;;;38.80;21.50;;;;;;;0.54;93.70;99449.88;217919;1257;140429;-67
2023/12/09 17:31:14;;;;;;;32.30;19.20;;;;;;;0.54;93.58;99442.66;218193;1260;140858;-68
2023/12/09 17:36:22;;;;;;;40.30;25.90;;;;;;;0.54;93.61;99437.65;218697;1260;140062;-67
2023/12/09 17:41:27;;;;;;;33.00;18.80;;;;;;;0.52;93.58;99420.91;219131;1257;141609;-65
2023/12/09 17:46:31;;;;;;;35.90;20.60;;;;;;;0.48;93.65;99410.02;218237;1260;233871;-64
2023/12/09 17:51:35;;;;;;;36.50;22.80;;;;;;;0.44;93.56;99403.87;218312;1256;139739;-64
2023/12/09 17:56:40;;;;;;;37.10;20.70;;;;;;;0.39;93.65;99390.60;217964;1257;139551;-64
2023/12/09 18:01:45;;;;;;;38.60;20.20;;;;;;;0.30;93.48;99373.41;218013;1257;140741;-63
2023/12/09 18:06:51;;;;;;;47.80;26.90;;;;;;;0.24;93.57;99367.29;218475;1258;139532;-64
2023/12/09 18:11:57;;;;;;;41.30;23.00;;;;;;;0.22;93.77;99367.69;218462;1258;140095;-64
2023/12/09 18:17:03;;;;;;;33.50;23.00;;;;;;;0.22;93.90;99368.64;218532;1257;142623;-65
2023/12/09 18:22:08;;;;;;;35.80;21.00;;;;;;;0.19;93.91;99359.13;218117;1258;140819;-65
2023/12/09 18:27:13;;;;;;;33.30;21.40;;;;;;;0.19;93.82;99366.89;218483;1258;139566;-66
2023/12/09 18:32:18;;;;;;;34.60;20.10;;;;;;;0.21;94.13;99361.70;218026;1260;141144;-66
2023/12/09 18:37:24;;;;;;;32.10;18.90;;;;;;;0.22;94.24;99349.02;217968;1257;139885;-66
2023/12/09 18:42:32;;;;;;;36.10;20.40;;;;;;;0.22;94.24;99339.18;218864;1259;140941;-66
2023/12/09 18:47:50;;;;;;;37.50;20.30;;;;;;;0.22;94.25;99340.30;219103;1257;140122;-66
2023/12/09 18:53:10;;;;;;;34.30;19.70;;;;;;;0.23;94.16;99343.11;220440;1256;140153;-67
2023/12/09 19:16:04;;;;;;;35.90;20.10;;;;;;;0.35;93.92;99292.58;214711;1301;657028;-67
2023/12/09 19:21:18;;;;;;;39.80;22.30;;;;;;;0.32;93.97;99273.13;216339;1269;140929;-66
2023/12/09 19:26:24;;;;;;;32.00;20.30;;;;;;;0.30;93.82;99261.21;217219;1266;1175836;-66
2023/12/09 19:31:34;;;;;;;31.80;19.70;;;;;;;0.28;93.98;99258.13;217412;1266;139733;-67
2023/12/09 19:36:48;;;;;;;28.10;16.30;;;;;;;0.26;93.64;99250.64;217643;1269;139209;-64
2023/12/09 19:41:52;;;;;;;30.40;18.20;;;;;;;0.23;93.63;99243.17;217730;1266;139951;-65
2023/12/09 19:47:00;;;;;;;34.00;18.20;;;;;;;0.19;93.78;99237.84;217106;1266;139000;-66
2023/12/09 19:52:18;;;;;;;37.90;20.20;;;;;;;0.16;93.87;99231.77;216737;1269;139205;-65
2023/12/09 19:57:35;;;;;;;37.80;20.50;;;;;;;0.14;94.04;99237.42;216542;1269;139364;-66
2023/12/09 20:03:16;;;;;;;33.00;17.80;;;;;;;0.10;93.67;99235.08;218191;1258;139314;-66
2023/12/09 20:08:29;;;;;;;39.00;20.00;;;;;;;0.09;93.91;99232.66;218679;1260;139740;-66
2023/12/09 20:13:49;;;;;;;36.20;19.00;;;;;;;0.08;93.85;99231.65;218818;1259;139953;-66
2023/12/09 20:19:04;;;;;;;33.90;20.40;;;;;;;0.10;94.17;99227.80;217837;1261;234662;-67
2023/12/09 20:24:30;;;;;;;33.20;20.80;;;;;;;0.10;93.90;99216.60;218420;1260;140171;-66
2023/12/09 20:29:37;;;;;;;27.10;16.20;;;;;;;0.10;93.65;99200.64;218391;1262;139799;-65
2023/12/09 20:34:44;;;;;;;35.80;20.00;;;;;;;0.07;93.59;99193.97;219469;1260;139803;-67
2023/12/09 20:39:52;;;;;;;35.70;18.50;;;;;;;0.00;93.16;99189.09;219440;1260;140055;-67
2023/12/09 20:44:58;;;;;;;31.50;16.70;;;;;;;-0.04;93.29;99178.21;219999;1259;140028;-67
2023/12/09 20:50:03;;;;;;;33.90;17.70;;;;;;;-0.12;93.27;99180.70;218378;1260;139291;-67
2023/12/09 20:55:09;;;;;;;32.90;18.80;;;;;;;-0.19;93.10;99184.73;219067;1257;139634;-66
2023/12/09 21:00:18;;;;;;;40.00;19.50;;;;;;;-0.26;93.05;99184.02;219789;1259;140399;-67
2023/12/09 21:05:23;;;;;;;34.10;20.00;;;;;;;-0.27;93.30;99168.45;218759;1260;139469;-66
2023/12/09 21:10:29;;;;;;;35.50;19.50;;;;;;;-0.29;93.25;99163.42;219045;1259;141055;-67
2023/12/09 21:15:39;;;;;;;32.00;18.60;;;;;;;-0.32;93.39;99170.09;219029;1260;139511;-67
2023/12/09 21:20:44;;;;;;;34.60;18.50;;;;;;;-0.36;93.15;99159.29;217562;1260;139949;-67
2023/12/09 21:25:49;;;;;;;32.20;17.80;;;;;;;-0.43;92.92;99161.34;218173;1259;140427;-67
2023/12/09 21:30:54;;;;;;;31.40;17.90;;;;;;;-0.49;92.61;99170.43;218652;1260;139344;-66
2023/12/09 21:36:10;;;;;;;34.50;16.10;;;;;;;-0.55;92.79;99169.00;217277;1260;139419;-66
2023/12/09 21:41:23;;;;;;;30.20;19.10;;;;;;;-0.65;92.76;99140.35;218009;1257;139923;-66
2023/12/09 21:46:27;;;;;;;31.30;17.70;;;;;;;-0.76;92.76;99149.17;217992;1260;139809;-66
2023/12/09 21:51:39;;;;;;;33.60;18.40;;;;;;;-0.82;92.80;99143.89;218582;1257;139522;-66
2023/12/09 21:56:44;;;;;;;31.00;16.80;;;;;;;-0.89;92.47;99131.92;218138;1257;140239;-66
2023/12/09 22:01:50;;;;;;;32.30;15.50;;;;;;;-0.91;92.71;99125.13;217766;1260;140478;-66
2023/12/09 22:06:56;;;;;;;23.10;13.90;;;;;;;-0.97;92.59;99122.86;217812;1256;139657;-66
2023/12/09 22:12:05;;;;;;;22.80;15.90;;;;;;;-1.07;92.53;99118.19;219091;1257;140134;-66
2023/12/09 22:17:11;;;;;;;32.90;17.30;;;;;;;-1.14;92.82;99106.75;219077;1260;139882;-66
2023/12/09 22:22:17;;;;;;;27.80;16.70;;;;;;;-1.21;92.31;99085.80;218898;1256;140040;-66
2023/12/09 22:27:25;;;;;;;31.60;18.10;;;;;;;-1.27;92.31;99068.92;218286;1257;140065;-66
2023/12/09 22:32:31;;;;;;;29.50;14.20;;;;;;;-1.34;92.21;99050.14;218169;1257;139761;-66
2023/12/09 22:37:39;;;;;;;32.60;16.50;;;;;;;-1.44;92.37;99048.11;219098;1259;139893;-66
2023/12/09 22:42:44;;;;;;;25.40;14.40;;;;;;;-1.49;92.45;99046.68;218664;1256;139660;-66
2023/12/09 22:47:50;;;;;;;24.00;13.60;;;;;;;-1.51;92.45;99034.02;219659;1256;141676;-66
2023/12/09 22:52:55;;;;;;;26.40;15.70;;;;;;;-1.53;92.40;99030.45;220488;1256;140385;-66
2023/12/09 22:58:01;;;;;;;33.50;17.80;;;;;;;-1.54;92.56;99030.30;218733;1257;140667;-66
2023/12/09 23:03:06;;;;;;;29.10;16.20;;;;;;;-1.52;92.52;99030.67;220097;1256;141457;-65
2023/12/09 23:08:10;;;;;;;32.00;16.80;;;;;;;-1.52;92.54;99023.84;220446;1256;139258;-66
2023/12/09 23:13:15;;;;;;;27.60;14.80;;;;;;;-1.52;92.64;99023.18;218875;1257;139703;-65
2023/12/09 23:18:21;;;;;;;40.00;20.40;;;;;;;-1.48;93.05;99022.69;217575;1260;139545;-64